createdAt,value
2022-11-21T00:00:01.163Z,1004.9
2022-11-21T00:01:01.106Z,1004.84
2022-11-21T00:02:01.104Z,1004.81
2022-11-21T00:03:01.126Z,1004.8
2022-11-21T00:04:01.118Z,1004.78
2022-11-21T00:05:01.369Z,1004.74
2022-11-21T00:06:02.066Z,1004.74
2022-11-21T00:07:01.184Z,1004.72
2022-11-21T00:08:01.175Z,1004.69
2022-11-21T00:09:01.162Z,1004.7
2022-11-21T00:10:01.052Z,1004.73
2022-11-21T00:11:01.069Z,1004.7
2022-11-21T00:12:01.082Z,1004.64
2022-11-21T00:13:01.057Z,1004.64
2022-11-21T00:14:01.089Z,1004.59
2022-11-21T00:15:01.324Z,1004.6
2022-11-21T00:16:01.123Z,1004.55
2022-11-21T00:17:01.397Z,1004.6
2022-11-21T00:18:01.245Z,1004.57
2022-11-21T00:19:01.367Z,1004.49
2022-11-21T00:20:01.135Z,1004.46
2022-11-21T00:21:01.242Z,1004.44
2022-11-21T00:22:01.540Z,1004.52
2022-11-21T00:23:01.258Z,1004.53
2022-11-21T00:24:01.160Z,1004.5
2022-11-21T00:25:01.178Z,1004.52
2022-11-21T00:26:01.074Z,1004.44
2022-11-21T00:27:01.421Z,1004.49
2022-11-21T00:28:01.082Z,1004.45
2022-11-21T00:29:01.376Z,1004.42
2022-11-21T00:30:01.451Z,1004.35
2022-11-21T00:31:02.031Z,1004.38
2022-11-21T00:32:01.111Z,1004.35
2022-11-21T00:33:01.106Z,1004.34
2022-11-21T00:34:01.119Z,1004.3
2022-11-21T00:35:01.153Z,1004.26
2022-11-21T00:36:01.136Z,1004.23
2022-11-21T00:37:01.617Z,1004.27
2022-11-21T00:38:02.572Z,1004.22
2022-11-21T00:39:01.231Z,1004.18
2022-11-21T00:40:01.156Z,1004.22
2022-11-21T00:41:01.267Z,1004.17
2022-11-21T00:42:01.985Z,1004.19
2022-11-21T00:43:01.991Z,1004.13
2022-11-21T00:44:01.096Z,1004.11
2022-11-21T00:45:01.472Z,1004.12
2022-11-21T00:46:02.332Z,1004.08
2022-11-21T00:47:01.090Z,1004.1
2022-11-21T00:48:01.137Z,1004.13
2022-11-21T00:49:01.095Z,1004.1
2022-11-21T00:50:01.050Z,1004.11
2022-11-21T00:51:01.705Z,1004.13
2022-11-21T00:52:01.128Z,1004.11
2022-11-21T00:53:01.109Z,1004.09
2022-11-21T00:54:00.915Z,1004.11
2022-11-21T00:55:01.266Z,1004.05
2022-11-21T00:56:02.851Z,1004.04
2022-11-21T00:57:01.148Z,1004.02
2022-11-21T00:58:01.175Z,1004.03
2022-11-21T00:59:01.109Z,1003.99
2022-11-21T01:00:00.771Z,1003.95
2022-11-21T01:01:06.074Z,1003.97
2022-11-21T01:02:02.175Z,1003.98
2022-11-21T01:03:01.819Z,1003.96
2022-11-21T01:04:01.271Z,1003.94
2022-11-21T01:05:02.121Z,1003.94
2022-11-21T01:06:08.716Z,1003.91
2022-11-21T01:07:01.246Z,1003.96
2022-11-21T01:08:01.130Z,1003.91
2022-11-21T01:09:01.929Z,1003.89
2022-11-21T01:10:01.848Z,1003.88
2022-11-21T01:11:12.659Z,1003.89
2022-11-21T01:12:01.141Z,1003.91
2022-11-21T01:13:01.143Z,1003.88
2022-11-21T01:14:01.175Z,1003.88
2022-11-21T01:15:01.163Z,1003.89
2022-11-21T01:16:14.360Z,1003.83
2022-11-21T01:17:02.613Z,1003.82
2022-11-21T01:18:02.079Z,1003.83
2022-11-21T01:19:01.429Z,1003.79
2022-11-21T01:20:01.076Z,1003.82
2022-11-21T01:21:01.089Z,1003.76
2022-11-21T01:22:01.850Z,1003.78
2022-11-21T01:23:01.108Z,1003.76
2022-11-21T01:24:01.117Z,1003.75
2022-11-21T01:25:01.138Z,1003.75
2022-11-21T01:26:01.435Z,1003.65
2022-11-21T01:27:01.245Z,1003.69
2022-11-21T01:28:01.260Z,1003.67
2022-11-21T01:29:02.352Z,1003.63
2022-11-21T01:30:01.890Z,1003.63
2022-11-21T01:31:02.072Z,1003.64
2022-11-21T01:32:01.068Z,1003.58
2022-11-21T01:33:01.081Z,1003.55
2022-11-21T01:34:01.095Z,1003.53
2022-11-21T01:35:01.103Z,1003.44
2022-11-21T01:36:01.362Z,1003.39
2022-11-21T01:37:01.083Z,1003.38
2022-11-21T01:38:01.114Z,1003.32
2022-11-21T01:39:01.655Z,1003.34
2022-11-21T01:40:01.119Z,1003.3
2022-11-21T01:41:01.126Z,1003.3
2022-11-21T01:42:01.137Z,1003.28
2022-11-21T01:43:01.136Z,1003.25
2022-11-21T01:44:01.329Z,1003.27
2022-11-21T01:45:01.452Z,1003.21
2022-11-21T01:46:01.189Z,1003.22
2022-11-21T01:47:01.065Z,1003.25
2022-11-21T01:48:01.160Z,1003.21
2022-11-21T01:49:01.058Z,1003.21
2022-11-21T01:50:01.072Z,1003.17
2022-11-21T01:51:01.084Z,1003.18
2022-11-21T01:52:01.225Z,1003.14
2022-11-21T01:53:01.457Z,1003.16
2022-11-21T01:54:01.106Z,1003.16
2022-11-21T01:55:01.409Z,1003.17
2022-11-21T01:56:01.141Z,1003.11
2022-11-21T01:57:01.135Z,1003.11
2022-11-21T01:58:01.795Z,1003.11
2022-11-21T01:59:01.510Z,1003.08
2022-11-21T02:00:01.168Z,1003.09
2022-11-21T02:01:01.135Z,1003.11
2022-11-21T02:02:01.153Z,1003.11
2022-11-21T02:03:01.141Z,1003.09
2022-11-21T02:04:01.172Z,1003.09
2022-11-21T02:05:01.360Z,1003.11
2022-11-21T02:06:02.030Z,1003.08
2022-11-21T02:07:01.493Z,1003.13
2022-11-21T02:08:01.087Z,1003.12
2022-11-21T02:09:01.079Z,1003.12
2022-11-21T02:10:01.091Z,1003.1
2022-11-21T02:11:01.104Z,1003.1
2022-11-21T02:12:01.101Z,1003.09
2022-11-21T02:13:01.334Z,1003.11
2022-11-21T02:14:02.216Z,1003.13
2022-11-21T02:15:02.966Z,1003.12
2022-11-21T02:16:01.170Z,1003.04
2022-11-21T02:17:01.238Z,1003.04
2022-11-21T02:18:01.081Z,1003.06
2022-11-21T02:19:01.149Z,1003.04
2022-11-21T02:20:01.148Z,1003.05
2022-11-21T02:21:01.225Z,1003.05
2022-11-21T02:22:02.148Z,1003.03
2022-11-21T02:23:04.139Z,1003.03
2022-11-21T02:24:01.316Z,1003.02
2022-11-21T02:25:01.093Z,1003
2022-11-21T02:26:01.187Z,1003.04
2022-11-21T02:27:03.870Z,1003.01
2022-11-21T02:28:01.969Z,1003
2022-11-21T02:29:01.825Z,1003
2022-11-21T02:30:01.515Z,1003.02
2022-11-21T02:31:01.263Z,1003.06
2022-11-21T02:32:02.808Z,1003
2022-11-21T02:33:01.930Z,1003.03
2022-11-21T02:34:01.144Z,1002.98
2022-11-21T02:35:01.134Z,1003
2022-11-21T02:36:01.153Z,1002.98
2022-11-21T02:37:06.188Z,1002.96
2022-11-21T02:38:01.460Z,1002.93
2022-11-21T02:39:01.069Z,1002.9
2022-11-21T02:40:01.069Z,1002.89
2022-11-21T02:41:01.073Z,1002.84
2022-11-21T02:42:08.901Z,1002.84
2022-11-21T02:43:01.090Z,1002.83
2022-11-21T02:44:01.066Z,1002.81
2022-11-21T02:45:01.117Z,1002.81
2022-11-21T02:46:01.117Z,1002.74
2022-11-21T02:47:11.403Z,1002.69
2022-11-21T02:48:04.198Z,1002.69
2022-11-21T02:49:02.667Z,1002.7
2022-11-21T02:50:01.805Z,1002.65
2022-11-21T02:51:01.345Z,1002.67
2022-11-21T02:52:14.356Z,1002.61
2022-11-21T02:53:01.185Z,1002.6
2022-11-21T02:54:01.061Z,1002.64
2022-11-21T02:55:01.352Z,1002.6
2022-11-21T02:56:01.461Z,1002.65
2022-11-21T02:57:01.197Z,1002.67
2022-11-21T02:58:04.833Z,1002.62
2022-11-21T02:59:01.075Z,1002.65
2022-11-21T03:00:01.061Z,1002.64
2022-11-21T03:01:01.137Z,1002.63
2022-11-21T03:02:01.803Z,1002.59
2022-11-21T03:03:02.047Z,1002.59
2022-11-21T03:04:02.487Z,1002.57
2022-11-21T03:05:01.506Z,1002.55
2022-11-21T03:06:01.136Z,1002.53
2022-11-21T03:07:02.010Z,1002.54
2022-11-21T03:08:01.144Z,1002.56
2022-11-21T03:09:01.166Z,1002.52
2022-11-21T03:10:01.152Z,1002.51
2022-11-21T03:11:01.073Z,1002.51
2022-11-21T03:12:01.311Z,1002.48
2022-11-21T03:13:01.748Z,1002.47
2022-11-21T03:14:01.426Z,1002.41
2022-11-21T03:15:01.087Z,1002.4
2022-11-21T03:16:01.068Z,1002.4
2022-11-21T03:17:01.124Z,1002.35
2022-11-21T03:18:01.141Z,1002.37
2022-11-21T03:19:01.843Z,1002.36
2022-11-21T03:20:01.127Z,1002.34
2022-11-21T03:21:01.054Z,1002.32
2022-11-21T03:22:01.064Z,1002.28
2022-11-21T03:23:01.509Z,1002.29
2022-11-21T03:24:01.040Z,1002.26
2022-11-21T03:25:01.150Z,1002.28
2022-11-21T03:26:01.164Z,1002.23
2022-11-21T03:27:01.048Z,1002.25
2022-11-21T03:28:01.057Z,1002.23
2022-11-21T03:29:01.119Z,1002.25
2022-11-21T03:30:01.248Z,1002.23
2022-11-21T03:31:01.155Z,1002.2
2022-11-21T03:32:01.173Z,1002.21
2022-11-21T03:33:01.108Z,1002.2
2022-11-21T03:34:01.062Z,1002.19
2022-11-21T03:35:01.733Z,1002.2
2022-11-21T03:36:00.714Z,1002.16
2022-11-21T03:37:00.396Z,1002.13
2022-11-21T03:38:00.087Z,1002.11
2022-11-21T03:38:59.733Z,1002.09
2022-11-21T03:40:01.370Z,1002.08
2022-11-21T03:41:02.051Z,1002.09
2022-11-21T03:42:01.162Z,1002
2022-11-21T03:43:01.160Z,1002
2022-11-21T03:44:00.975Z,1001.99
2022-11-21T03:45:00.668Z,1001.95
2022-11-21T03:46:00.377Z,1001.95
2022-11-21T03:47:00.054Z,1001.93
2022-11-21T03:47:59.646Z,1001.9
2022-11-21T03:49:01.474Z,1001.85
2022-11-21T03:50:04.053Z,1001.87
2022-11-21T03:51:01.130Z,1001.89
2022-11-21T03:52:01.116Z,1001.88
2022-11-21T03:53:01.135Z,1001.92
2022-11-21T03:54:01.516Z,1001.79
2022-11-21T03:55:01.904Z,1001.82
2022-11-21T03:56:01.181Z,1001.83
2022-11-21T03:57:01.151Z,1001.8
2022-11-21T03:58:01.141Z,1001.8
2022-11-21T03:59:01.184Z,1001.81
2022-11-21T04:00:01.794Z,1001.79
2022-11-21T04:01:01.212Z,1001.81
2022-11-21T04:02:01.484Z,1001.83
2022-11-21T04:03:01.081Z,1001.81
2022-11-21T04:04:01.085Z,1001.81
2022-11-21T04:05:01.095Z,1001.79
2022-11-21T04:06:01.107Z,1001.8
2022-11-21T04:07:01.152Z,1001.78
2022-11-21T04:08:01.341Z,1001.76
2022-11-21T04:09:01.922Z,1001.73
2022-11-21T04:10:01.151Z,1001.68
2022-11-21T04:11:01.139Z,1001.7
2022-11-21T04:12:06.417Z,1001.68
2022-11-21T04:13:04.000Z,1001.7
2022-11-21T04:14:01.787Z,1001.67
2022-11-21T04:15:01.187Z,1001.71
2022-11-21T04:16:01.179Z,1001.65
2022-11-21T04:17:01.179Z,1001.67
2022-11-21T04:18:07.197Z,1001.65
2022-11-21T04:19:01.172Z,1001.63
2022-11-21T04:20:01.128Z,1001.66
2022-11-21T04:21:01.101Z,1001.67
2022-11-21T04:22:01.294Z,1001.6
2022-11-21T04:23:09.766Z,1001.65
2022-11-21T04:24:01.466Z,1001.64
2022-11-21T04:25:02.102Z,1001.59
2022-11-21T04:26:01.516Z,1001.66
2022-11-21T04:27:01.516Z,1001.61
2022-11-21T04:28:12.943Z,1001.61
2022-11-21T04:29:01.070Z,1001.6
2022-11-21T04:30:01.382Z,1001.66
2022-11-21T04:31:02.274Z,1001.67
2022-11-21T04:32:01.161Z,1001.63
2022-11-21T04:33:15.128Z,1001.59
2022-11-21T04:34:01.372Z,1001.59
2022-11-21T04:35:01.090Z,1001.6
2022-11-21T04:36:01.099Z,1001.57
2022-11-21T04:37:01.369Z,1001.57
2022-11-21T04:38:01.122Z,1001.58
2022-11-21T04:39:00.728Z,1001.57
2022-11-21T04:40:00.377Z,1001.54
2022-11-21T04:40:59.996Z,1001.55
2022-11-21T04:41:59.805Z,1001.55
2022-11-21T04:43:01.724Z,1001.55
2022-11-21T04:44:02.051Z,1001.51
2022-11-21T04:45:01.425Z,1001.54
2022-11-21T04:46:01.065Z,1001.51
2022-11-21T04:47:05.332Z,1001.51
2022-11-21T04:48:01.152Z,1001.49
2022-11-21T04:49:01.056Z,1001.51
2022-11-21T04:50:01.091Z,1001.51
2022-11-21T04:51:01.396Z,1001.5
2022-11-21T04:52:01.387Z,1001.47
2022-11-21T04:53:01.399Z,1001.45
2022-11-21T04:54:02.172Z,1001.48
2022-11-21T04:55:01.120Z,1001.49
2022-11-21T04:56:01.098Z,1001.45
2022-11-21T04:57:01.100Z,1001.45
2022-11-21T04:58:01.048Z,1001.45
2022-11-21T04:59:01.126Z,1001.43
2022-11-21T05:00:01.579Z,1001.39
2022-11-21T05:01:01.258Z,1001.37
2022-11-21T05:02:01.683Z,1001.4
2022-11-21T05:03:01.208Z,1001.32
2022-11-21T05:04:00.851Z,1001.37
2022-11-21T05:05:00.583Z,1001.35
2022-11-21T05:06:00.262Z,1001.33
2022-11-21T05:07:00.002Z,1001.31
2022-11-21T05:07:59.624Z,1001.36
2022-11-21T05:09:01.368Z,1001.34
2022-11-21T05:10:01.493Z,1001.29
2022-11-21T05:11:01.054Z,1001.33
2022-11-21T05:12:01.088Z,1001.28
2022-11-21T05:13:01.111Z,1001.29
2022-11-21T05:14:01.705Z,1001.27
2022-11-21T05:15:01.493Z,1001.31
2022-11-21T05:16:01.201Z,1001.28
2022-11-21T05:17:01.144Z,1001.32
2022-11-21T05:18:01.263Z,1001.29
2022-11-21T05:19:01.775Z,1001.31
2022-11-21T05:20:01.058Z,1001.33
2022-11-21T05:21:01.595Z,1001.32
2022-11-21T05:22:01.774Z,1001.3
2022-11-21T05:23:01.265Z,1001.29
2022-11-21T05:24:01.146Z,1001.35
2022-11-21T05:25:01.076Z,1001.32
2022-11-21T05:26:01.093Z,1001.32
2022-11-21T05:27:01.098Z,1001.33
2022-11-21T05:28:01.094Z,1001.34
2022-11-21T05:29:01.043Z,1001.28
2022-11-21T05:30:01.243Z,1001.26
2022-11-21T05:31:02.348Z,1001.21
2022-11-21T05:32:02.441Z,1001.19
2022-11-21T05:33:01.013Z,1001.23
2022-11-21T05:34:00.661Z,1001.25
2022-11-21T05:35:00.320Z,1001.14
2022-11-21T05:36:00.013Z,1001.19
2022-11-21T05:36:59.607Z,1001.17
2022-11-21T05:38:01.199Z,1001.18
2022-11-21T05:39:01.867Z,1001.19
2022-11-21T05:40:01.869Z,1001.15
2022-11-21T05:41:01.433Z,1001.19
2022-11-21T05:42:03.142Z,1001.19
2022-11-21T05:43:02.639Z,1001.22
2022-11-21T05:44:02.908Z,1001.2
2022-11-21T05:45:01.210Z,1001.22
2022-11-21T05:46:02.442Z,1001.18
2022-11-21T05:47:01.127Z,1001.21
2022-11-21T05:48:01.168Z,1001.26
2022-11-21T05:49:00.888Z,1001.23
2022-11-21T05:50:01.507Z,1001.24
2022-11-21T05:51:00.736Z,1001.25
2022-11-21T05:52:00.329Z,1001.28
2022-11-21T05:53:00.040Z,1001.27
2022-11-21T05:54:04.425Z,1001.29
2022-11-21T05:55:01.058Z,1001.32
2022-11-21T05:56:01.425Z,1001.35
2022-11-21T05:57:01.454Z,1001.38
2022-11-21T05:58:01.456Z,1001.39
2022-11-21T05:59:07.592Z,1001.41
2022-11-21T06:00:01.134Z,1001.34
2022-11-21T06:01:01.094Z,1001.35
2022-11-21T06:02:01.115Z,1001.26
2022-11-21T06:03:01.162Z,1001.25
2022-11-21T06:04:11.463Z,1001.26
2022-11-21T06:05:00.808Z,1001.24
2022-11-21T06:06:00.378Z,1001.29
2022-11-21T06:07:00.142Z,1001.29
2022-11-21T06:07:59.769Z,1001.29
2022-11-21T06:09:14.585Z,1001.35
2022-11-21T06:10:01.099Z,1001.4
2022-11-21T06:11:01.731Z,1001.44
2022-11-21T06:12:01.971Z,1001.35
2022-11-21T06:13:02.408Z,1001.37
2022-11-21T06:14:16.775Z,1001.35
2022-11-21T06:15:01.096Z,1001.41
2022-11-21T06:16:01.052Z,1001.37
2022-11-21T06:17:01.079Z,1001.37
2022-11-21T06:18:01.113Z,1001.39
2022-11-21T06:19:01.100Z,1001.36
2022-11-21T06:20:01.146Z,1001.39
2022-11-21T06:21:01.221Z,1001.32
2022-11-21T06:22:01.127Z,1001.37
2022-11-21T06:23:01.367Z,1001.36
2022-11-21T06:24:01.379Z,1001.4
2022-11-21T06:25:02.049Z,1001.44
2022-11-21T06:26:01.148Z,1001.46
2022-11-21T06:27:01.711Z,1001.47
2022-11-21T06:28:01.292Z,1001.48
2022-11-21T06:29:02.332Z,1001.49
2022-11-21T06:30:01.241Z,1001.52
2022-11-21T06:31:01.871Z,1001.51
2022-11-21T06:32:01.882Z,1001.52
2022-11-21T06:33:02.028Z,1001.55
2022-11-21T06:34:01.239Z,1001.54
2022-11-21T06:35:01.137Z,1001.61
2022-11-21T06:36:01.114Z,1001.61
2022-11-21T06:37:01.122Z,1001.65
2022-11-21T06:38:01.148Z,1001.63
2022-11-21T06:39:01.129Z,1001.58
2022-11-21T06:40:01.315Z,1001.66
2022-11-21T06:41:01.427Z,1001.66
2022-11-21T06:42:01.398Z,1001.66
2022-11-21T06:43:01.423Z,1001.66
2022-11-21T06:44:02.075Z,1001.69
2022-11-21T06:45:01.070Z,1001.71
2022-11-21T06:46:01.089Z,1001.73
2022-11-21T06:47:01.222Z,1001.8
2022-11-21T06:48:01.130Z,1001.76
2022-11-21T06:49:01.164Z,1001.74
2022-11-21T06:50:01.583Z,1001.77
2022-11-21T06:51:01.226Z,1001.85
2022-11-21T06:52:01.112Z,1001.83
2022-11-21T06:53:00.838Z,1001.85
2022-11-21T06:54:00.399Z,1001.91
2022-11-21T06:55:00.001Z,1001.9
2022-11-21T06:55:59.627Z,1001.93
2022-11-21T06:57:01.193Z,1001.94
2022-11-21T06:58:01.594Z,1002.01
2022-11-21T06:59:01.293Z,1002
2022-11-21T07:00:02.030Z,1002.06
2022-11-21T07:01:02.043Z,1002.03
2022-11-21T07:02:01.954Z,1002.11
2022-11-21T07:03:03.333Z,1002.06
2022-11-21T07:04:01.095Z,1002.1
2022-11-21T07:05:01.095Z,1002.14
2022-11-21T07:06:01.103Z,1002.14
2022-11-21T07:07:01.100Z,1002.13
2022-11-21T07:08:01.236Z,1002.13
2022-11-21T07:10:01.243Z,1002.12
2022-11-21T07:11:24.274Z,1002.14
2022-11-21T07:12:02.596Z,1002.15
2022-11-21T07:13:01.641Z,1002.13
2022-11-21T07:14:06.233Z,1002.1
2022-11-21T07:15:01.483Z,1002.1
2022-11-21T07:16:01.158Z,1002.11
2022-11-21T07:17:01.057Z,1002.16
2022-11-21T07:18:01.063Z,1002.2
2022-11-21T07:19:04.556Z,1002.18
2022-11-21T07:20:01.286Z,1002.24
2022-11-21T07:21:04.015Z,1002.27
2022-11-21T07:22:01.223Z,1002.23
2022-11-21T07:23:01.143Z,1002.3
2022-11-21T07:24:01.217Z,1002.29
2022-11-21T07:25:02.236Z,1002.32
2022-11-21T07:26:01.142Z,1002.29
2022-11-21T07:27:01.139Z,1002.33
2022-11-21T07:28:01.125Z,1002.37
2022-11-21T07:29:01.135Z,1002.37
2022-11-21T07:30:01.290Z,1002.35
2022-11-21T07:31:01.359Z,1002.38
2022-11-21T07:32:01.529Z,1002.41
2022-11-21T07:33:01.950Z,1002.42
2022-11-21T07:34:01.443Z,1002.44
2022-11-21T07:35:02.697Z,1002.47
2022-11-21T07:36:01.070Z,1002.45
2022-11-21T07:37:01.082Z,1002.52
2022-11-21T07:38:01.196Z,1002.47
2022-11-21T07:39:01.152Z,1002.52
2022-11-21T07:40:06.105Z,1002.52
2022-11-21T07:41:02.127Z,1002.54
2022-11-21T07:42:01.402Z,1002.58
2022-11-21T07:43:01.112Z,1002.62
2022-11-21T07:44:01.130Z,1002.64
2022-11-21T07:45:08.482Z,1002.69
2022-11-21T07:46:01.434Z,1002.71
2022-11-21T07:47:01.152Z,1002.73
2022-11-21T07:48:01.153Z,1002.76
2022-11-21T07:49:03.514Z,1002.79
2022-11-21T07:50:10.597Z,1002.77
2022-11-21T07:51:01.923Z,1002.76
2022-11-21T07:52:01.607Z,1002.79
2022-11-21T07:53:00.674Z,1002.8
2022-11-21T07:54:00.393Z,1002.81
2022-11-21T07:55:12.620Z,1002.83
2022-11-21T07:56:02.126Z,1002.89
2022-11-21T07:57:01.909Z,1002.92
2022-11-21T07:58:01.121Z,1002.9
2022-11-21T07:59:01.128Z,1002.91
2022-11-21T08:00:16.632Z,1002.91
2022-11-21T08:01:01.242Z,1002.96
2022-11-21T08:02:02.068Z,1002.95
2022-11-21T08:03:01.288Z,1003.01
2022-11-21T08:04:01.144Z,1002.95
2022-11-21T08:05:01.156Z,1002.94
2022-11-21T08:06:01.072Z,1003.04
2022-11-21T08:07:01.170Z,1003.03
2022-11-21T08:08:01.428Z,1003.04
2022-11-21T08:09:01.176Z,1003.1
2022-11-21T08:10:01.321Z,1003.12
2022-11-21T08:11:01.085Z,1003.08
2022-11-21T08:12:01.341Z,1003.06
2022-11-21T08:13:00.784Z,1003.1
2022-11-21T08:14:00.383Z,1003.13
2022-11-21T08:14:59.970Z,1003.13
2022-11-21T08:15:59.695Z,1003.15
2022-11-21T08:17:01.384Z,1003.18
2022-11-21T08:18:02.169Z,1003.19
2022-11-21T08:19:01.753Z,1003.18
2022-11-21T08:20:01.947Z,1003.18
2022-11-21T08:21:01.437Z,1003.19
2022-11-21T08:22:01.250Z,1003.19
2022-11-21T08:23:01.464Z,1003.18
2022-11-21T08:24:01.587Z,1003.23
2022-11-21T08:25:01.464Z,1003.28
2022-11-21T08:26:01.089Z,1003.24
2022-11-21T08:27:01.099Z,1003.28
2022-11-21T08:28:00.784Z,1003.32
2022-11-21T08:29:00.517Z,1003.26
2022-11-21T08:30:00.178Z,1003.24
2022-11-21T08:31:00.247Z,1003.34
2022-11-21T08:32:00.360Z,1003.33
2022-11-21T08:33:00.374Z,1003.39
2022-11-21T08:34:00.095Z,1003.4
2022-11-21T08:34:59.686Z,1003.41
2022-11-21T08:36:01.791Z,1003.39
2022-11-21T08:37:01.461Z,1003.43
2022-11-21T08:38:02.181Z,1003.44
2022-11-21T08:39:01.267Z,1003.39
2022-11-21T08:40:02.357Z,1003.41
2022-11-21T08:41:01.563Z,1003.45
2022-11-21T08:42:01.464Z,1003.43
2022-11-21T08:43:01.122Z,1003.4
2022-11-21T08:44:01.094Z,1003.44
2022-11-21T08:45:01.091Z,1003.46
2022-11-21T08:46:01.099Z,1003.44
2022-11-21T08:47:01.444Z,1003.48
2022-11-21T08:48:01.112Z,1003.42
2022-11-21T08:49:01.123Z,1003.47
2022-11-21T08:50:05.803Z,1003.41
2022-11-21T08:51:01.129Z,1003.49
2022-11-21T08:52:01.152Z,1003.46
2022-11-21T08:53:00.831Z,1003.5
2022-11-21T08:54:01.162Z,1003.57
2022-11-21T08:55:01.121Z,1003.63
2022-11-21T08:56:04.396Z,1003.55
2022-11-21T08:57:01.600Z,1003.63
2022-11-21T08:58:01.315Z,1003.62
2022-11-21T08:59:02.808Z,1003.67
2022-11-21T09:00:02.232Z,1003.64
2022-11-21T09:01:01.915Z,1003.74
2022-11-21T09:02:02.109Z,1003.69
2022-11-21T09:03:01.117Z,1003.72
2022-11-21T09:04:01.105Z,1003.73
2022-11-21T09:05:01.113Z,1003.72
2022-11-21T09:06:01.511Z,1003.76
2022-11-21T09:07:01.218Z,1003.8
2022-11-21T09:08:01.150Z,1003.82
2022-11-21T09:09:01.144Z,1003.79
2022-11-21T09:10:01.353Z,1003.85
2022-11-21T09:11:01.154Z,1003.85
2022-11-21T09:12:01.058Z,1003.85
2022-11-21T09:13:00.769Z,1003.87
2022-11-21T09:14:00.762Z,1003.88
2022-11-21T09:15:00.348Z,1003.86
2022-11-21T09:16:00.047Z,1003.9
2022-11-21T09:17:02.326Z,1003.89
2022-11-21T09:18:01.779Z,1003.89
2022-11-21T09:19:01.105Z,1003.86
2022-11-21T09:20:01.236Z,1003.87
2022-11-21T09:21:01.313Z,1003.92
2022-11-21T09:22:01.134Z,1003.89
2022-11-21T09:23:01.431Z,1003.92
2022-11-21T09:24:01.546Z,1003.89
2022-11-21T09:25:01.232Z,1003.87
2022-11-21T09:26:02.939Z,1003.89
2022-11-21T09:27:01.162Z,1003.92
2022-11-21T09:28:01.064Z,1003.9
2022-11-21T09:29:01.078Z,1003.85
2022-11-21T09:30:01.073Z,1003.84
2022-11-21T09:31:05.777Z,1003.87
2022-11-21T09:32:01.489Z,1003.87
2022-11-21T09:33:01.570Z,1003.91
2022-11-21T09:34:00.994Z,1003.95
2022-11-21T09:35:01.064Z,1003.92
2022-11-21T09:36:08.887Z,1003.91
2022-11-21T09:37:01.787Z,1003.87
2022-11-21T09:38:02.570Z,1003.95
2022-11-21T09:39:01.422Z,1003.91
2022-11-21T09:40:01.232Z,1003.94
2022-11-21T09:41:11.649Z,1003.95
2022-11-21T09:42:02.247Z,1003.97
2022-11-21T09:43:01.248Z,1004.02
2022-11-21T09:44:01.069Z,1004.03
2022-11-21T09:45:01.059Z,1004.03
2022-11-21T09:46:15.016Z,1004.05
2022-11-21T09:47:01.072Z,1004.11
2022-11-21T09:48:01.150Z,1004.1
2022-11-21T09:49:01.228Z,1004.14
2022-11-21T09:50:01.478Z,1004.12
2022-11-21T09:51:01.203Z,1004.14
2022-11-21T09:52:01.108Z,1004.15
2022-11-21T09:53:01.217Z,1004.19
2022-11-21T09:54:01.118Z,1004.24
2022-11-21T09:55:01.347Z,1004.19
2022-11-21T09:56:01.292Z,1004.12
2022-11-21T09:57:01.491Z,1004.16
2022-11-21T09:58:00.872Z,1004.19
2022-11-21T09:59:00.549Z,1004.2
2022-11-21T10:00:00.238Z,1004.17
2022-11-21T10:01:00.000Z,1004.2
2022-11-21T10:01:59.661Z,1004.18
2022-11-21T10:03:01.320Z,1004.17
2022-11-21T10:04:01.170Z,1004.2
2022-11-21T10:05:01.101Z,1004.19
2022-11-21T10:06:01.088Z,1004.18
2022-11-21T10:07:01.558Z,1004.26
2022-11-21T10:08:01.216Z,1004.23
2022-11-21T10:09:02.717Z,1004.26
2022-11-21T10:10:01.128Z,1004.24
2022-11-21T10:11:08.160Z,1004.25
2022-11-21T10:12:01.123Z,1004.29
2022-11-21T10:13:01.150Z,1004.29
2022-11-21T10:14:02.193Z,1004.31
2022-11-21T10:15:01.101Z,1004.31
2022-11-21T10:16:01.064Z,1004.34
2022-11-21T10:17:01.181Z,1004.34
2022-11-21T10:18:00.891Z,1004.43
2022-11-21T10:19:00.652Z,1004.46
2022-11-21T10:20:00.350Z,1004.44
2022-11-21T10:21:00.040Z,1004.44
2022-11-21T10:21:59.733Z,1004.45
2022-11-21T10:23:01.549Z,1004.4
2022-11-21T10:24:01.503Z,1004.47
2022-11-21T10:25:02.120Z,1004.44
2022-11-21T10:26:01.433Z,1004.46
2022-11-21T10:27:02.128Z,1004.47
2022-11-21T10:28:02.068Z,1004.53
2022-11-21T10:29:01.215Z,1004.47
2022-11-21T10:30:01.144Z,1004.49
2022-11-21T10:31:01.142Z,1004.5
2022-11-21T10:32:01.531Z,1004.53
2022-11-21T10:33:00.859Z,1004.48
2022-11-21T10:34:00.408Z,1004.49
2022-11-21T10:35:00.029Z,1004.46
2022-11-21T10:35:59.683Z,1004.52
2022-11-21T10:37:01.757Z,1004.53
2022-11-21T10:38:01.388Z,1004.55
2022-11-21T10:39:01.252Z,1004.52
2022-11-21T10:40:01.169Z,1004.57
2022-11-21T10:41:01.707Z,1004.48
2022-11-21T10:42:01.318Z,1004.58
2022-11-21T10:43:02.052Z,1004.6
2022-11-21T10:44:01.142Z,1004.54
2022-11-21T10:45:01.126Z,1004.54
2022-11-21T10:46:01.137Z,1004.51
2022-11-21T10:47:01.144Z,1004.59
2022-11-21T10:48:06.725Z,1004.58
2022-11-21T10:49:01.654Z,1004.58
2022-11-21T10:50:01.849Z,1004.65
2022-11-21T10:51:01.846Z,1004.65
2022-11-21T10:52:01.070Z,1004.69
2022-11-21T10:53:00.863Z,1004.68
2022-11-21T10:54:07.325Z,1004.7
2022-11-21T10:55:01.061Z,1004.67
2022-11-21T10:56:00.690Z,1004.72
2022-11-21T10:57:00.275Z,1004.72
2022-11-21T10:58:00.886Z,1004.72
2022-11-21T10:59:01.147Z,1004.74
2022-11-21T11:00:01.137Z,1004.73
2022-11-21T11:01:01.212Z,1004.73
2022-11-21T11:02:01.829Z,1004.76
2022-11-21T11:03:02.104Z,1004.71
2022-11-21T11:04:26.182Z,1004.73
2022-11-21T11:05:01.053Z,1004.75
2022-11-21T11:06:01.249Z,1004.76
2022-11-21T11:07:00.888Z,1004.73
2022-11-21T11:08:01.170Z,1004.73
2022-11-21T11:09:01.074Z,1004.68
2022-11-21T11:10:01.086Z,1004.71
2022-11-21T11:11:01.844Z,1004.71
2022-11-21T11:12:04.286Z,1004.75
2022-11-21T11:13:02.134Z,1004.8
2022-11-21T11:14:01.147Z,1004.76
2022-11-21T11:15:01.127Z,1004.76
2022-11-21T11:16:01.829Z,1004.71
2022-11-21T11:17:06.578Z,1004.73
2022-11-21T11:18:07.681Z,1004.73
2022-11-21T11:19:01.239Z,1004.68
2022-11-21T11:20:01.328Z,1004.7
2022-11-21T11:21:01.156Z,1004.72
2022-11-21T11:22:09.587Z,1004.76
2022-11-21T11:23:01.165Z,1004.77
2022-11-21T11:24:01.099Z,1004.71
2022-11-21T11:25:01.775Z,1004.75
2022-11-21T11:26:01.487Z,1004.79
2022-11-21T11:27:11.166Z,1004.76
2022-11-21T11:28:01.300Z,1004.76
2022-11-21T11:29:01.125Z,1004.8
2022-11-21T11:30:01.114Z,1004.82
2022-11-21T11:31:01.113Z,1004.8
2022-11-21T11:32:19.412Z,1004.85
2022-11-21T11:33:01.325Z,1004.82
2022-11-21T11:34:01.282Z,1004.83
2022-11-21T11:35:01.602Z,1004.82
2022-11-21T11:36:01.136Z,1004.88
2022-11-21T11:37:15.843Z,1004.9
2022-11-21T11:38:04.116Z,1004.89
2022-11-21T11:39:01.977Z,1004.91
2022-11-21T11:40:01.150Z,1004.91
2022-11-21T11:41:01.272Z,1004.94
2022-11-21T11:42:01.381Z,1004.94
2022-11-21T11:43:02.271Z,1004.88
2022-11-21T11:44:02.114Z,1004.92
2022-11-21T11:45:02.118Z,1004.9
2022-11-21T11:46:01.498Z,1004.9
2022-11-21T11:47:01.230Z,1004.92
2022-11-21T11:48:01.943Z,1004.88
2022-11-21T11:49:19.766Z,1004.93
2022-11-21T11:50:01.153Z,1004.88
2022-11-21T11:51:01.136Z,1004.92
2022-11-21T11:52:01.143Z,1004.92
2022-11-21T11:53:01.176Z,1004.9
2022-11-21T11:54:01.383Z,1004.91
2022-11-21T11:55:01.159Z,1004.86
2022-11-21T11:56:01.057Z,1004.9
2022-11-21T11:57:01.076Z,1004.96
2022-11-21T11:58:01.106Z,1004.92
2022-11-21T11:59:01.488Z,1004.91
2022-11-21T12:00:01.168Z,1004.9
2022-11-21T12:01:01.320Z,1004.93
2022-11-21T12:02:01.153Z,1004.93
2022-11-21T12:03:01.131Z,1004.97
2022-11-21T12:04:01.340Z,1004.98
2022-11-21T12:05:01.116Z,1005
2022-11-21T12:06:05.998Z,1005
2022-11-21T12:09:01.428Z,1005.02
2022-11-21T12:10:01.163Z,1005.05
2022-11-21T12:11:01.178Z,1005.05